createdAt,value
2022-09-26T00:01:10.774Z,12.50
2022-09-26T00:03:37.784Z,12.50
2022-09-26T00:06:05.681Z,12.50
2022-09-26T00:08:33.078Z,12.50
2022-09-26T00:11:01.327Z,12.50
2022-09-26T00:13:28.817Z,12.50
2022-09-26T00:15:56.087Z,12.50
2022-09-26T00:18:23.270Z,12.50
2022-09-26T00:20:50.017Z,12.50
2022-09-26T00:23:16.912Z,12.40
2022-09-26T00:25:47.173Z,12.40
2022-09-26T00:28:14.042Z,12.40
2022-09-26T00:30:41.304Z,12.40
2022-09-26T00:33:08.127Z,12.40
2022-09-26T00:35:34.794Z,12.40
2022-09-26T00:38:01.509Z,12.40
2022-09-26T00:40:28.466Z,12.40
2022-09-26T00:42:55.266Z,12.40
2022-09-26T00:45:23.587Z,12.40
2022-09-26T00:48:01.204Z,12.40
2022-09-26T00:50:39.861Z,12.40
2022-09-26T00:53:08.276Z,12.40
2022-09-26T00:55:37.305Z,12.40
2022-09-26T00:58:05.626Z,12.40
2022-09-26T01:00:32.462Z,12.30
2022-09-26T01:02:59.151Z,12.30
2022-09-26T01:05:25.870Z,12.30
2022-09-26T01:07:53.820Z,12.30
2022-09-26T01:10:21.042Z,12.20
2022-09-26T01:12:47.723Z,12.30
2022-09-26T01:15:14.606Z,12.20
2022-09-26T01:17:42.826Z,12.30
2022-09-26T01:20:17.389Z,12.30
2022-09-26T01:22:44.082Z,12.30
2022-09-26T01:25:29.515Z,12.30
2022-09-26T01:28:14.872Z,12.30
2022-09-26T01:30:44.321Z,12.30
2022-09-26T01:33:10.942Z,12.30
2022-09-26T01:35:40.755Z,12.20
2022-09-26T01:38:22.674Z,12.20
2022-09-26T01:41:01.548Z,12.20
2022-09-26T01:43:54.522Z,12.20
2022-09-26T01:46:28.787Z,12.30
2022-09-26T01:48:58.858Z,12.30
2022-09-26T01:51:32.994Z,12.30
2022-09-26T01:54:02.957Z,12.20
2022-09-26T01:56:31.617Z,12.20
2022-09-26T01:59:05.332Z,12.20
2022-09-26T02:01:35.272Z,12.20
2022-09-26T02:04:07.141Z,12.20
2022-09-26T02:06:37.396Z,12.20
2022-09-26T02:09:08.038Z,12.20
2022-09-26T02:11:36.529Z,12.20
2022-09-26T02:14:03.845Z,12.20
2022-09-26T02:16:39.495Z,12.20
2022-09-26T02:19:14.012Z,12.20
2022-09-26T02:21:41.191Z,12.20
2022-09-26T02:24:07.996Z,12.20
2022-09-26T02:26:34.667Z,12.20
2022-09-26T02:29:01.509Z,12.20
2022-09-26T02:31:31.745Z,12.20
2022-09-26T02:33:58.598Z,12.20
2022-09-26T02:36:25.656Z,12.20
2022-09-26T02:38:52.504Z,12.20
2022-09-26T02:41:22.583Z,12.20
2022-09-26T02:43:55.355Z,12.30
2022-09-26T02:46:28.140Z,12.20
2022-09-26T02:49:13.749Z,12.20
2022-09-26T02:51:55.730Z,12.20
2022-09-26T02:54:29.240Z,12.20
2022-09-26T02:57:14.819Z,12.20
2022-09-26T02:59:50.218Z,12.20
2022-09-26T03:02:22.570Z,12.20
2022-09-26T03:04:52.216Z,12.20
2022-09-26T03:07:39.312Z,12.20
2022-09-26T03:10:07.798Z,12.20
2022-09-26T03:12:35.365Z,12.10
2022-09-26T03:15:04.181Z,12.10
2022-09-26T03:17:31.446Z,12.10
2022-09-26T03:20:18.119Z,12.10
2022-09-26T03:22:44.970Z,12.00
2022-09-26T03:25:14.880Z,12.00
2022-09-26T03:27:44.041Z,12.00
2022-09-26T03:30:11.856Z,12.00
2022-09-26T03:32:38.517Z,12.00
2022-09-26T03:35:05.319Z,12.00
2022-09-26T03:37:34.177Z,12.00
2022-09-26T03:40:11.271Z,12.00
2022-09-26T03:42:38.251Z,12.10
2022-09-26T03:45:07.835Z,12.10
2022-09-26T03:47:34.964Z,12.10
2022-09-26T03:50:01.880Z,12.10
2022-09-26T03:52:28.870Z,12.10
2022-09-26T03:54:55.728Z,12.10
2022-09-26T03:57:22.740Z,12.10
2022-09-26T03:59:49.919Z,12.10
2022-09-26T04:02:17.246Z,12.10
2022-09-26T04:04:43.994Z,12.10
2022-09-26T04:07:10.686Z,12.10
2022-09-26T04:09:37.333Z,12.10
2022-09-26T04:12:03.989Z,12.10
2022-09-26T04:14:31.333Z,12.10
2022-09-26T04:16:58.511Z,12.10
2022-09-26T04:19:26.580Z,12.10
2022-09-26T04:21:53.281Z,12.10
2022-09-26T04:24:21.363Z,12.10
2022-09-26T04:26:48.135Z,12.10
2022-09-26T04:29:15.436Z,12.10
2022-09-26T04:31:42.344Z,12.10
2022-09-26T04:34:09.697Z,12.00
2022-09-26T04:36:36.364Z,12.00
2022-09-26T04:39:03.792Z,12.00
2022-09-26T04:41:30.544Z,11.90
2022-09-26T04:43:57.961Z,11.90
2022-09-26T04:46:30.215Z,11.90
2022-09-26T04:48:58.063Z,11.90
2022-09-26T04:51:25.867Z,11.90
2022-09-26T04:53:52.807Z,11.90
2022-09-26T04:56:20.702Z,12.00
2022-09-26T04:58:47.390Z,12.00
2022-09-26T05:01:15.871Z,12.00
2022-09-26T05:03:42.639Z,12.00
2022-09-26T05:06:09.924Z,12.00
2022-09-26T05:08:37.618Z,12.00
2022-09-26T05:11:04.555Z,12.00
2022-09-26T05:13:31.495Z,12.00
2022-09-26T05:16:01.802Z,12.00
2022-09-26T05:18:28.756Z,12.10
2022-09-26T05:20:56.278Z,12.00
2022-09-26T05:23:44.988Z,12.00
2022-09-26T05:26:26.232Z,12.10
2022-09-26T05:28:57.379Z,12.10
2022-09-26T05:31:29.104Z,12.10
2022-09-26T05:33:58.792Z,12.10
2022-09-26T05:36:26.224Z,12.10
2022-09-26T05:38:53.329Z,12.10
2022-09-26T05:41:20.097Z,12.10
2022-09-26T05:43:49.743Z,12.20
2022-09-26T05:46:16.467Z,12.20
2022-09-26T05:48:43.254Z,12.20
2022-09-26T05:51:10.999Z,12.20
2022-09-26T05:53:38.232Z,12.20
2022-09-26T05:56:06.202Z,12.30
2022-09-26T05:58:34.519Z,12.30
2022-09-26T06:01:11.278Z,12.30
2022-09-26T06:03:38.624Z,12.30
2022-09-26T06:06:06.270Z,12.20
2022-09-26T06:08:33.205Z,12.20
2022-09-26T06:11:04.888Z,12.20
2022-09-26T06:13:31.757Z,12.20
2022-09-26T06:16:08.249Z,12.20
2022-09-26T06:18:38.737Z,12.20
2022-09-26T06:21:06.357Z,12.20
2022-09-26T06:23:34.295Z,12.30
2022-09-26T06:26:01.473Z,12.30
2022-09-26T06:28:28.220Z,12.30
2022-09-26T06:30:55.420Z,12.40
2022-09-26T06:33:22.407Z,12.40
2022-09-26T06:35:59.489Z,12.40
2022-09-26T06:38:26.115Z,12.40
2022-09-26T06:40:55.878Z,12.40
2022-09-26T06:43:22.686Z,12.40
2022-09-26T06:45:49.790Z,12.40
2022-09-26T06:48:21.009Z,12.40
2022-09-26T06:50:54.182Z,12.40
2022-09-26T06:53:21.220Z,12.40
2022-09-26T06:55:47.919Z,12.50
2022-09-26T06:58:14.813Z,12.50
2022-09-26T07:00:41.698Z,12.50
2022-09-26T07:03:08.450Z,12.60
2022-09-26T07:05:35.558Z,12.70
2022-09-26T07:08:02.656Z,12.80
2022-09-26T07:10:30.516Z,12.90
2022-09-26T07:13:02.981Z,12.90
2022-09-26T07:15:33.992Z,13.00
2022-09-26T07:18:02.695Z,13.10
2022-09-26T07:20:32.109Z,13.10
2022-09-26T07:23:04.874Z,13.20
2022-09-26T07:25:32.022Z,13.30
2022-09-26T07:27:59.321Z,13.50
2022-09-26T07:30:26.553Z,13.60
2022-09-26T07:32:56.994Z,13.70
2022-09-26T07:35:23.832Z,13.80
2022-09-26T07:37:53.544Z,13.80
2022-09-26T07:40:21.124Z,13.80
2022-09-26T07:43:09.377Z,13.80
2022-09-26T07:45:53.192Z,13.80
2022-09-26T07:48:38.169Z,13.80
2022-09-26T07:51:09.166Z,13.80
2022-09-26T07:53:36.678Z,13.80
2022-09-26T07:56:06.376Z,13.80
2022-09-26T07:58:33.776Z,13.90
2022-09-26T08:01:00.419Z,14.00
2022-09-26T08:03:28.580Z,14.10
2022-09-26T08:06:01.997Z,14.10
2022-09-26T08:08:29.570Z,14.10
2022-09-26T08:11:02.842Z,14.10
2022-09-26T08:13:30.687Z,14.20
2022-09-26T08:16:02.258Z,14.20
2022-09-26T08:18:28.973Z,14.10
2022-09-26T08:20:55.623Z,14.10
2022-09-26T08:23:22.582Z,14.10
2022-09-26T08:25:49.234Z,14.10
2022-09-26T08:28:17.316Z,14.10
2022-09-26T08:30:45.322Z,14.20
2022-09-26T08:33:12.575Z,14.20
2022-09-26T08:35:39.568Z,14.20
2022-09-26T08:38:09.117Z,14.20
2022-09-26T08:40:39.205Z,14.30
2022-09-26T08:43:11.896Z,14.30
2022-09-26T08:46:11.044Z,14.40
2022-09-26T08:48:45.196Z,14.40
2022-09-26T08:51:38.252Z,14.50
2022-09-26T08:54:16.701Z,14.50
2022-09-26T08:56:46.029Z,14.50
2022-09-26T08:59:17.984Z,14.40
2022-09-26T09:01:45.434Z,14.40
2022-09-26T09:04:12.302Z,14.40
2022-09-26T09:06:39.032Z,14.50
2022-09-26T09:09:05.762Z,14.60
2022-09-26T09:11:41.645Z,14.60
2022-09-26T09:14:08.347Z,14.70
2022-09-26T09:16:51.691Z,14.70
2022-09-26T09:19:41.751Z,14.80
2022-09-26T09:22:14.437Z,14.90
2022-09-26T09:24:47.892Z,14.90
2022-09-26T09:30:27.137Z,14.80
2022-09-26T09:32:57.160Z,14.70
2022-09-26T09:35:50.016Z,14.70
2022-09-26T09:38:18.195Z,14.70
2022-09-26T09:41:02.975Z,14.80
2022-09-26T09:43:48.582Z,14.80
2022-09-26T09:46:23.577Z,14.80
2022-09-26T09:48:58.013Z,14.80
2022-09-26T09:51:39.113Z,14.70
2022-09-26T09:54:15.288Z,14.80
2022-09-26T09:56:42.054Z,14.80
2022-09-26T09:59:35.880Z,14.90
2022-09-26T10:02:11.463Z,15.00
2022-09-26T10:04:38.274Z,15.00
2022-09-26T10:07:05.575Z,15.10
2022-09-26T10:09:40.368Z,15.10
2022-09-26T10:12:12.373Z,15.10
2022-09-26T10:14:45.180Z,15.50
2022-09-26T10:17:11.966Z,15.70
2022-09-26T10:19:39.680Z,15.80
2022-09-26T10:22:11.220Z,15.80
2022-09-26T10:24:41.346Z,15.90
2022-09-26T10:27:16.614Z,15.90
2022-09-26T10:29:44.018Z,15.80
2022-09-26T10:32:11.437Z,15.60
2022-09-26T10:34:39.274Z,15.50
2022-09-26T10:37:20.279Z,15.40
2022-09-26T10:40:12.326Z,15.30
2022-09-26T10:42:39.311Z,15.20
2022-09-26T10:45:17.489Z,15.10
2022-09-26T10:47:46.173Z,15.10
2022-09-26T10:50:18.078Z,15.20
2022-09-26T10:52:53.609Z,15.30
2022-09-26T10:55:26.299Z,15.40
2022-09-26T10:57:57.424Z,15.40
2022-09-26T11:00:33.344Z,15.30
2022-09-26T11:03:00.412Z,15.40
2022-09-26T11:05:45.916Z,15.50
2022-09-26T11:08:14.161Z,15.90
2022-09-26T11:10:42.171Z,16.30
2022-09-26T11:13:16.695Z,16.40
2022-09-26T11:15:52.668Z,16.50
2022-09-26T11:18:22.665Z,16.70
2022-09-26T11:20:51.368Z,16.90
2022-09-26T11:23:36.474Z,16.90
2022-09-26T11:31:46.272Z,16.70
2022-09-26T11:34:16.939Z,16.70
2022-09-26T11:36:45.256Z,16.70
2022-09-26T11:39:15.149Z,16.70
2022-09-26T11:41:52.977Z,16.60
2022-09-26T11:44:38.396Z,16.40
2022-09-26T11:47:17.024Z,16.30
2022-09-26T11:50:00.544Z,16.30
2022-09-26T11:52:49.131Z,16.30
2022-09-26T11:55:26.413Z,16.50
2022-09-26T11:58:03.446Z,16.50
2022-09-26T12:00:37.191Z,16.60
2022-09-26T12:03:33.562Z,16.70
2022-09-26T12:06:07.663Z,16.70
2022-09-26T12:08:46.849Z,16.80
2022-09-26T12:11:28.786Z,16.70
2022-09-26T12:13:55.448Z,16.80
2022-09-26T12:16:22.241Z,16.80
2022-09-26T12:19:05.308Z,16.90
2022-09-26T12:21:39.514Z,17.00
2022-09-26T12:24:12.239Z,17.10
2022-09-26T12:26:51.189Z,17.10
2022-09-26T12:29:23.984Z,17.20
2022-09-26T12:31:56.721Z,17.20
2022-09-26T12:34:29.583Z,17.20
2022-09-26T12:37:15.435Z,17.20
2022-09-26T12:40:01.693Z,17.20
2022-09-26T12:42:48.726Z,17.10
2022-09-26T12:45:18.382Z,17.10
2022-09-26T12:47:51.945Z,17.20
2022-09-26T12:50:37.856Z,17.30
2022-09-26T12:53:19.182Z,17.50
2022-09-26T12:55:45.793Z,17.60
2022-09-26T12:58:12.511Z,17.80
2022-09-26T13:00:51.405Z,17.90
2022-09-26T13:03:36.532Z,17.80
2022-09-26T13:06:23.127Z,17.70
2022-09-26T13:09:08.844Z,17.50
2022-09-26T13:11:41.640Z,17.30
2022-09-26T13:14:13.271Z,17.30
2022-09-26T13:16:46.667Z,17.20
2022-09-26T13:19:29.311Z,17.20
2022-09-26T13:22:10.553Z,17.10
2022-09-26T13:25:08.044Z,16.90
2022-09-26T13:27:40.503Z,16.80
2022-09-26T13:30:13.139Z,16.70
2022-09-26T13:32:53.867Z,16.80
2022-09-26T13:35:22.694Z,16.90
2022-09-26T13:37:59.868Z,17.10
2022-09-26T13:40:39.420Z,17.10
2022-09-26T13:43:09.288Z,17.10
2022-09-26T13:45:59.050Z,17.10
2022-09-26T13:48:42.219Z,17.10
2022-09-26T13:51:18.502Z,17.20
2022-09-26T13:53:56.041Z,17.10
2022-09-26T13:56:44.114Z,17.10
2022-09-26T13:59:19.856Z,17.10
2022-09-26T14:02:05.809Z,17.10
2022-09-26T14:04:33.498Z,17.10
2022-09-26T14:07:28.087Z,17.00
2022-09-26T14:10:03.690Z,17.00
2022-09-26T14:12:49.058Z,17.20
2022-09-26T14:15:20.909Z,17.30
2022-09-26T14:17:47.773Z,17.30
2022-09-26T14:20:27.363Z,17.20
2022-09-26T14:22:57.536Z,17.00
2022-09-26T14:25:43.009Z,16.80
2022-09-26T14:28:31.979Z,16.40
2022-09-26T14:31:17.944Z,16.00
2022-09-26T14:33:45.450Z,15.70
2022-09-26T14:36:24.727Z,15.50
2022-09-26T14:38:52.588Z,15.30
2022-09-26T14:41:20.272Z,15.30
2022-09-26T14:43:51.258Z,15.20
2022-09-26T14:46:27.884Z,15.10
2022-09-26T14:48:57.068Z,15.10
2022-09-26T14:51:28.913Z,15.00
2022-09-26T14:54:06.798Z,15.00
2022-09-26T14:56:42.843Z,14.90
2022-09-26T14:59:19.091Z,14.80
2022-09-26T15:01:46.272Z,14.70
2022-09-26T15:04:21.968Z,14.60
2022-09-26T15:06:51.372Z,14.60
2022-09-26T15:09:21.547Z,14.60
2022-09-26T15:11:51.979Z,14.50
2022-09-26T15:14:19.193Z,14.50
2022-09-26T15:16:48.449Z,14.50
2022-09-26T15:19:18.034Z,14.40
2022-09-26T15:22:04.946Z,14.40
2022-09-26T15:24:36.736Z,14.40
2022-09-26T15:27:22.940Z,14.40
2022-09-26T15:30:14.228Z,14.30
2022-09-26T15:32:41.028Z,14.30
2022-09-26T15:35:11.052Z,14.40
2022-09-26T15:37:37.826Z,14.20
2022-09-26T15:40:16.983Z,14.20
2022-09-26T15:42:58.911Z,14.20
2022-09-26T15:45:27.627Z,14.10
2022-09-26T15:47:55.638Z,14.10
2022-09-26T15:50:31.526Z,14.10
2022-09-26T15:53:01.255Z,14.10
2022-09-26T15:55:29.180Z,14.10
2022-09-26T15:57:58.743Z,14.10
2022-09-26T16:00:25.526Z,14.20
2022-09-26T16:02:52.449Z,14.20
2022-09-26T16:05:21.306Z,14.10
2022-09-26T16:07:50.084Z,14.10
2022-09-26T16:10:20.665Z,14.00
2022-09-26T16:12:47.575Z,14.10
2022-09-26T16:15:18.864Z,14.00
2022-09-26T16:17:52.872Z,14.10
2022-09-26T16:20:20.900Z,14.10
2022-09-26T16:22:51.113Z,14.00
2022-09-26T16:25:20.705Z,14.00
2022-09-26T16:27:49.418Z,13.90
2022-09-26T16:30:28.668Z,13.90
2022-09-26T16:33:07.899Z,13.90
2022-09-26T16:35:36.021Z,13.90
2022-09-26T16:38:14.964Z,13.90
2022-09-26T16:40:49.253Z,13.90
2022-09-26T16:43:22.069Z,13.80
2022-09-26T16:45:50.798Z,13.80
2022-09-26T16:48:36.238Z,13.80
2022-09-26T16:51:15.371Z,13.70
2022-09-26T16:53:46.107Z,13.70
2022-09-26T16:56:14.619Z,13.70
2022-09-26T16:58:47.786Z,13.70
2022-09-26T17:01:33.171Z,13.70
2022-09-26T17:03:59.957Z,13.70
2022-09-26T17:06:27.722Z,13.60
2022-09-26T17:08:55.594Z,13.60
2022-09-26T17:11:23.122Z,13.50
2022-09-26T17:13:50.276Z,13.50
2022-09-26T17:16:17.176Z,13.50
2022-09-26T17:18:45.005Z,13.40
2022-09-26T17:21:12.594Z,13.40
2022-09-26T17:23:41.468Z,13.40
2022-09-26T17:26:14.475Z,13.40
2022-09-26T17:28:44.701Z,13.40
2022-09-26T17:31:19.065Z,13.40
2022-09-26T17:33:46.893Z,13.40
2022-09-26T17:36:22.261Z,13.40
2022-09-26T17:38:49.274Z,13.40
2022-09-26T17:41:16.269Z,13.40
2022-09-26T17:43:43.170Z,13.30
2022-09-26T17:46:15.088Z,13.30
2022-09-26T17:48:42.883Z,13.30
2022-09-26T17:51:13.898Z,13.20
2022-09-26T17:53:49.539Z,13.20
2022-09-26T17:56:16.974Z,13.20
2022-09-26T17:58:44.323Z,13.20
2022-09-26T18:01:18.923Z,13.20
2022-09-26T18:03:45.669Z,13.20
2022-09-26T18:06:12.311Z,13.20
2022-09-26T18:08:39.220Z,13.20
2022-09-26T18:11:10.416Z,13.20
2022-09-26T18:13:41.217Z,13.20
2022-09-26T18:16:09.613Z,13.20
2022-09-26T18:18:37.899Z,13.10
2022-09-26T18:21:06.316Z,13.10
2022-09-26T18:23:42.627Z,13.10
2022-09-26T18:26:10.532Z,13.10
2022-09-26T18:28:38.915Z,13.10
2022-09-26T18:31:06.617Z,13.10
2022-09-26T18:33:37.771Z,13.00
2022-09-26T18:36:05.219Z,13.00
2022-09-26T18:38:31.913Z,13.00
2022-09-26T18:40:58.985Z,13.00
2022-09-26T18:43:29.530Z,12.90
2022-09-26T18:45:57.560Z,12.90
2022-09-26T18:48:31.705Z,12.90
2022-09-26T18:50:58.779Z,12.90
2022-09-26T18:53:34.690Z,12.90
2022-09-26T18:56:20.095Z,12.80
2022-09-26T18:58:48.416Z,12.80
2022-09-26T19:01:15.212Z,12.80
2022-09-26T19:03:44.721Z,12.80
2022-09-26T19:06:13.688Z,12.70
2022-09-26T19:08:41.763Z,12.70
2022-09-26T19:11:27.135Z,12.70
2022-09-26T19:13:55.338Z,12.70
2022-09-26T19:16:23.183Z,12.70
2022-09-26T19:18:50.493Z,12.70
2022-09-26T19:21:20.188Z,12.70
2022-09-26T19:23:47.215Z,12.70
2022-09-26T19:26:26.204Z,12.80
2022-09-26T19:28:53.782Z,12.70
2022-09-26T19:31:21.009Z,12.70
2022-09-26T19:33:49.154Z,12.80
2022-09-26T19:36:17.077Z,12.80
2022-09-26T19:38:43.941Z,12.70
2022-09-26T19:41:10.742Z,12.70
2022-09-26T19:43:38.022Z,12.70
2022-09-26T19:46:06.166Z,12.70
2022-09-26T19:48:38.653Z,12.70
2022-09-26T19:51:06.085Z,12.60
2022-09-26T19:53:34.669Z,12.60
2022-09-26T19:56:01.481Z,12.60
2022-09-26T19:58:28.210Z,12.60
2022-09-26T20:00:56.112Z,12.50
2022-09-26T20:03:25.992Z,12.50
2022-09-26T20:05:52.696Z,12.60
2022-09-26T20:08:22.171Z,12.60
2022-09-26T20:10:49.581Z,12.50
2022-09-26T20:13:16.654Z,12.50
2022-09-26T20:15:44.039Z,12.50
2022-09-26T20:18:29.130Z,12.50
2022-09-26T20:20:56.674Z,12.50
2022-09-26T20:23:25.914Z,12.50
2022-09-26T20:25:53.423Z,12.50
2022-09-26T20:28:20.498Z,12.50
2022-09-26T20:30:54.406Z,12.50
2022-09-26T20:33:22.426Z,12.50
2022-09-26T20:36:01.642Z,12.50
2022-09-26T20:38:45.439Z,12.50
2022-09-26T20:41:15.203Z,12.50
2022-09-26T20:43:48.325Z,12.50
2022-09-26T20:46:15.533Z,12.50
2022-09-26T20:48:45.408Z,12.50
2022-09-26T20:51:20.135Z,12.50
2022-09-26T20:53:46.997Z,12.50
2022-09-26T20:56:17.015Z,12.40
2022-09-26T20:58:44.301Z,12.40
2022-09-26T21:01:12.014Z,12.50
2022-09-26T21:03:44.220Z,12.40
2022-09-26T21:06:21.639Z,12.40
2022-09-26T21:08:48.531Z,12.40
2022-09-26T21:11:17.311Z,12.40
2022-09-26T21:13:45.305Z,12.40
2022-09-26T21:16:13.457Z,12.40
2022-09-26T21:18:40.653Z,12.40
2022-09-26T21:21:08.702Z,12.40
2022-09-26T21:23:42.662Z,12.30
2022-09-26T21:26:19.813Z,12.30
2022-09-26T21:28:48.324Z,12.40
2022-09-26T21:31:20.057Z,12.30
2022-09-26T21:33:46.817Z,12.30
2022-09-26T21:36:13.545Z,12.30
2022-09-26T21:38:40.247Z,12.30
2022-09-26T21:41:08.004Z,12.30
2022-09-26T21:43:36.709Z,12.30
2022-09-26T21:46:03.435Z,12.30
2022-09-26T21:48:30.100Z,12.30
2022-09-26T21:50:58.371Z,12.30
2022-09-26T21:53:45.979Z,12.20
2022-09-26T21:56:15.940Z,12.20
2022-09-26T21:58:43.320Z,12.20
2022-09-26T22:01:10.227Z,12.20
2022-09-26T22:03:37.502Z,12.20
2022-09-26T22:06:07.402Z,12.20
2022-09-26T22:08:34.652Z,12.20
2022-09-26T22:11:03.239Z,12.20
2022-09-26T22:13:30.009Z,12.20
2022-09-26T22:16:03.477Z,12.10
2022-09-26T22:18:30.953Z,12.10
2022-09-26T22:20:57.740Z,12.10
2022-09-26T22:23:24.361Z,12.10
2022-09-26T22:25:51.090Z,12.10
2022-09-26T22:28:17.786Z,12.10
2022-09-26T22:30:44.600Z,12.10
2022-09-26T22:33:11.491Z,12.10
2022-09-26T22:35:38.159Z,12.10
2022-09-26T22:38:04.999Z,12.10
2022-09-26T22:40:31.748Z,12.00
2022-09-26T22:42:58.415Z,12.10
2022-09-26T22:45:25.106Z,12.00
2022-09-26T22:47:51.799Z,12.00
2022-09-26T22:50:18.521Z,12.00
2022-09-26T22:52:45.242Z,12.00
2022-09-26T22:55:11.926Z,12.00
2022-09-26T22:57:39.064Z,12.00
2022-09-26T23:00:06.261Z,12.00
2022-09-26T23:02:32.951Z,12.00
2022-09-26T23:04:59.699Z,12.00
2022-09-26T23:07:26.448Z,12.00
2022-09-26T23:09:53.164Z,12.00
2022-09-26T23:12:19.824Z,12.00
2022-09-26T23:14:46.492Z,11.90
2022-09-26T23:17:13.819Z,12.00
2022-09-26T23:19:41.355Z,11.90
2022-09-26T23:22:08.213Z,11.90
2022-09-26T23:24:34.917Z,11.90
2022-09-26T23:27:01.749Z,11.90
2022-09-26T23:29:28.550Z,11.90
2022-09-26T23:31:55.249Z,11.90
2022-09-26T23:34:21.947Z,11.90
2022-09-26T23:36:48.656Z,11.90
2022-09-26T23:39:15.514Z,11.90
2022-09-26T23:41:42.286Z,11.90
2022-09-26T23:44:08.999Z,11.90
2022-09-26T23:46:36.475Z,11.90
2022-09-26T23:49:03.413Z,11.90
2022-09-26T23:51:30.186Z,11.80
2022-09-26T23:53:56.873Z,11.80
2022-09-26T23:56:23.793Z,11.80
2022-09-26T23:58:50.468Z,11.80
